Time;durP1;ratioP1;P1;durP2;ratioP2;P2;SDS_P1;SDS_P2;PMS_P1;PMS_P2;Temp;Humidity;BMP_temperature;BMP_pressure;BME280_temperature;BME280_humidity;BME280_pressure;Samples;Min_cycle;Max_cycle;Signal;HPM_P1;HPM_P2
2022/05/12 00:00:53;;;;;;;6.30;1.40;;;;;;;12.99;74.82;101248.66;5039402;28;20036;-91
2022/05/12 00:03:18;;;;;;;6.07;1.07;;;;;;;12.98;74.94;101251.59;5039304;28;20053;-89
2022/05/12 00:05:44;;;;;;;6.67;1.10;;;;;;;12.88;75.02;101249.66;5036549;28;20041;-89
2022/05/12 00:08:10;;;;;;;5.95;1.27;;;;;;;12.85;75.29;101259.06;5026957;28;20064;-89
2022/05/12 00:10:36;;;;;;;5.28;1.35;;;;;;;12.80;75.19;101260.94;5055334;28;20388;-89
2022/05/12 00:13:03;;;;;;;4.80;1.27;;;;;;;12.76;75.20;101259.84;5056862;28;20035;-90
2022/05/12 00:15:31;;;;;;;4.97;0.98;;;;;;;12.61;75.55;101260.56;5050978;28;20437;-90
2022/05/12 00:17:57;;;;;;;6.78;1.60;;;;;;;12.59;75.88;101270.78;5032028;28;20087;-89
2022/05/12 00:20:23;;;;;;;4.82;1.23;;;;;;;12.51;75.95;101270.19;5032545;28;20041;-90
2022/05/12 00:22:49;;;;;;;3.65;1.40;;;;;;;12.47;76.31;101271.78;5038188;28;20214;-89
2022/05/12 00:25:20;;;;;;;7.30;1.40;;;;;;;12.42;76.07;101266.38;5051508;28;20029;-88
2022/05/12 00:27:45;;;;;;;7.28;1.20;;;;;;;12.34;76.34;101273.03;5052359;28;20036;-89
2022/05/12 00:30:12;;;;;;;2.40;1.07;;;;;;;12.30;76.67;101279.19;5051861;28;20025;-89
2022/05/12 00:32:39;;;;;;;6.22;1.10;;;;;;;12.21;76.86;101273.50;5052543;28;20025;-89
2022/05/12 00:35:06;;;;;;;3.30;0.82;;;;;;;12.15;77.06;101274.50;5052514;28;20108;-90
2022/05/12 00:37:32;;;;;;;4.10;1.00;;;;;;;12.13;77.13;101287.41;5051877;28;20033;-89
2022/05/12 00:39:57;;;;;;;5.90;1.40;;;;;;;12.07;77.20;101291.91;5036309;28;20029;-89
2022/05/12 00:42:22;;;;;;;5.93;1.20;;;;;;;12.03;77.33;101294.31;5038824;28;20063;-90
2022/05/12 00:44:48;;;;;;;6.43;1.45;;;;;;;12.02;77.49;101297.28;5052449;28;20036;-89
2022/05/12 00:47:13;;;;;;;5.40;1.57;;;;;;;12.01;77.62;101295.66;5014410;28;20038;-90
2022/05/12 00:49:40;;;;;;;3.80;1.20;;;;;;;11.91;77.56;101291.75;5012114;28;20048;-89
2022/05/12 00:52:18;;;;;;;4.82;1.20;;;;;;;11.91;77.48;101297.13;5012276;28;20033;-89
2022/05/12 00:54:46;;;;;;;7.10;1.23;;;;;;;11.87;78.09;101304.06;5012270;28;20068;-90
2022/05/12 00:57:16;;;;;;;5.93;1.25;;;;;;;11.79;78.24;101299.19;5029694;28;20037;-89
2022/05/12 00:59:41;;;;;;;6.23;1.63;;;;;;;11.74;78.48;101302.63;5030615;28;20037;-90
2022/05/12 01:02:10;;;;;;;3.67;1.00;;;;;;;11.62;78.94;101304.63;5030312;28;20280;-89
2022/05/12 01:04:36;;;;;;;3.63;1.10;;;;;;;11.57;79.12;101305.41;5031745;28;20558;-90
2022/05/12 01:07:01;;;;;;;5.43;1.17;;;;;;;11.55;78.87;101306.72;5031989;28;20081;-89
2022/05/12 01:09:27;;;;;;;2.03;1.00;;;;;;;11.50;79.21;101310.19;5032032;28;20096;-89
2022/05/12 01:11:54;;;;;;;2.60;1.13;;;;;;;11.45;79.64;101312.78;5033903;28;20094;-89
2022/05/12 01:14:19;;;;;;;2.05;0.80;;;;;;;11.40;79.61;101320.78;5050343;28;20028;-89
2022/05/12 01:16:48;;;;;;;4.38;1.10;;;;;;;11.34;79.81;101319.91;5051745;28;20028;-90
2022/05/12 01:19:29;;;;;;;4.88;1.15;;;;;;;11.26;79.55;101321.16;5051513;28;20112;-89
2022/05/12 01:21:55;;;;;;;3.67;1.00;;;;;;;11.27;79.66;101328.16;5051527;28;20025;-89
2022/05/12 01:24:24;;;;;;;3.17;1.00;;;;;;;11.18;80.14;101326.97;5051753;28;20694;-89
2022/05/12 01:26:50;;;;;;;1.83;1.05;;;;;;;11.15;80.28;101330.13;5050052;28;20032;-90
2022/05/12 01:29:15;;;;;;;4.75;1.25;;;;;;;11.05;79.92;101326.28;5042747;28;20025;-89
2022/05/12 01:31:41;;;;;;;6.83;1.17;;;;;;;11.03;80.38;101330.28;5030475;28;20025;-90
2022/05/12 01:34:09;;;;;;;2.97;1.10;;;;;;;10.99;80.87;101350.59;5031764;28;20040;-89
2022/05/12 01:36:36;;;;;;;1.85;1.02;;;;;;;10.89;80.86;101345.91;5031636;28;20429;-90
2022/05/12 01:39:03;;;;;;;6.38;1.08;;;;;;;10.85;81.09;101352.81;5030895;28;20033;-90
2022/05/12 01:41:28;;;;;;;7.38;1.20;;;;;;;10.84;81.22;101356.56;5030486;28;20045;-89
2022/05/12 01:43:54;;;;;;;3.60;1.03;;;;;;;10.79;81.37;101362.66;5030973;28;20042;-90
2022/05/12 01:46:19;;;;;;;3.70;1.00;;;;;;;10.70;81.36;101351.53;5029930;28;20029;-89
2022/05/12 01:48:45;;;;;;;4.80;1.33;;;;;;;10.68;81.59;101355.53;5030980;28;20666;-89
2022/05/12 01:51:10;;;;;;;3.65;0.90;;;;;;;10.66;81.55;101363.00;5030920;28;20021;-90
2022/05/12 01:53:36;;;;;;;8.03;1.20;;;;;;;10.64;81.95;101360.56;5029912;28;20024;-90
2022/05/12 01:56:04;;;;;;;3.42;1.23;;;;;;;10.66;82.08;101365.69;5031150;28;20029;-90
2022/05/12 01:58:29;;;;;;;6.68;1.00;;;;;;;10.68;82.17;101361.69;5035783;28;20033;-90
2022/05/12 02:00:55;;;;;;;6.30;1.10;;;;;;;10.69;81.98;101367.84;5031342;28;20049;-90
2022/05/12 02:03:20;;;;;;;4.27;1.30;;;;;;;10.60;82.19;101376.31;5030994;28;20103;-91
2022/05/12 02:05:51;;;;;;;6.90;1.20;;;;;;;10.59;82.66;101381.94;5032469;28;20027;-89
2022/05/12 02:08:18;;;;;;;4.70;1.20;;;;;;;10.53;83.18;101382.91;5042043;28;20120;-90
2022/05/12 02:10:47;;;;;;;7.55;1.45;;;;;;;10.51;82.92;101387.69;5050393;28;20028;-90
2022/05/12 02:13:14;;;;;;;9.30;1.80;;;;;;;10.45;83.49;101392.16;5051246;28;20025;-90
2022/05/12 02:15:41;;;;;;;7.28;1.80;;;;;;;10.45;84.16;101384.91;5052199;28;20071;-90
2022/05/12 02:18:07;;;;;;;6.03;1.33;;;;;;;10.45;83.92;101395.63;5051175;28;20021;-90
2022/05/12 02:20:32;;;;;;;9.55;1.30;;;;;;;10.52;84.30;101394.66;5048955;28;20115;-90
2022/05/12 02:22:58;;;;;;;8.83;1.67;;;;;;;10.53;84.20;101391.75;5053461;28;20353;-90
2022/05/12 02:25:23;;;;;;;9.30;1.50;;;;;;;10.53;83.66;101404.34;5054208;28;20029;-90
2022/05/12 02:27:51;;;;;;;9.10;1.45;;;;;;;10.52;83.97;101408.06;5069535;28;20021;-89
2022/05/12 02:30:24;;;;;;;7.70;1.60;;;;;;;10.43;83.90;101408.47;5070058;28;20036;-89
2022/05/12 02:32:50;;;;;;;7.25;2.10;;;;;;;10.41;84.09;101399.84;5068694;28;20032;-89
2022/05/12 02:35:15;;;;;;;7.60;1.20;;;;;;;10.41;83.89;101407.88;5050094;28;20072;-90
2022/05/12 02:37:40;;;;;;;6.37;1.43;;;;;;;10.36;84.27;101412.31;5053272;28;20352;-90
2022/05/12 02:40:07;;;;;;;8.70;1.70;;;;;;;10.35;84.31;101416.06;5051638;28;20049;-90
2022/05/12 02:42:33;;;;;;;7.97;1.80;;;;;;;10.34;85.01;101423.28;5038736;28;20033;-89
2022/05/12 02:44:58;;;;;;;8.17;1.50;;;;;;;10.30;84.24;101424.81;5037402;28;20025;-90
2022/05/12 02:47:24;;;;;;;9.67;1.57;;;;;;;10.26;84.54;101427.16;5045585;28;20303;-91
2022/05/12 02:49:50;;;;;;;7.72;1.70;;;;;;;10.23;84.75;101424.13;5034775;28;20083;-91
2022/05/12 02:52:15;;;;;;;9.13;1.47;;;;;;;10.21;84.82;101431.63;5032374;28;20025;-91
2022/05/12 02:54:40;;;;;;;8.03;1.70;;;;;;;10.17;85.01;101425.91;5032828;28;20362;-91
2022/05/12 02:57:06;;;;;;;8.77;2.10;;;;;;;10.15;85.43;101428.84;5031691;28;20085;-91
2022/05/12 02:59:32;;;;;;;11.80;1.80;;;;;;;10.19;85.51;101423.03;5053492;28;20037;-90
2022/05/12 03:01:58;;;;;;;9.95;1.67;;;;;;;10.15;85.67;101433.38;5064473;28;20029;-90
2022/05/12 03:04:24;;;;;;;8.63;2.13;;;;;;;10.05;85.42;101423.28;5046036;28;20029;-91
2022/05/12 03:06:49;;;;;;;7.43;2.10;;;;;;;10.00;86.10;101432.03;5043256;28;20029;-90
2022/05/12 03:09:15;;;;;;;10.10;2.00;;;;;;;9.94;86.23;101432.19;5040232;28;20029;-91
2022/05/12 03:11:42;;;;;;;7.97;2.17;;;;;;;9.87;86.84;101434.19;5040671;28;20415;-89
2022/05/12 03:14:07;;;;;;;9.02;2.85;;;;;;;9.88;86.92;101443.84;5042278;28;20021;-91
2022/05/12 03:16:34;;;;;;;11.23;2.53;;;;;;;9.84;87.42;101443.50;5033354;28;20512;-91
2022/05/12 03:19:00;;;;;;;15.10;2.92;;;;;;;9.81;88.90;101439.47;5033375;28;20030;-91
2022/05/12 03:21:26;;;;;;;12.87;2.70;;;;;;;9.84;88.28;101449.69;5032266;28;20487;-90
2022/05/12 03:23:55;;;;;;;11.55;3.72;;;;;;;9.87;88.85;101442.22;5031320;28;20030;-90
2022/05/12 03:26:20;;;;;;;11.27;3.30;;;;;;;9.84;88.65;101447.03;5031001;28;20487;-90
2022/05/12 03:28:46;;;;;;;12.23;3.50;;;;;;;9.88;89.13;101450.03;5031642;28;20071;-91
2022/05/12 03:31:11;;;;;;;15.00;4.20;;;;;;;9.90;89.61;101449.78;5050440;28;20037;-90
2022/05/12 03:33:38;;;;;;;16.87;3.80;;;;;;;9.87;88.87;101450.25;5050260;28;20028;-91
2022/05/12 03:36:05;;;;;;;11.07;3.70;;;;;;;9.79;89.43;101452.25;5050306;28;20035;-90
2022/05/12 03:38:30;;;;;;;14.55;3.70;;;;;;;9.79;89.92;101460.28;5050775;28;20025;-90
2022/05/12 03:40:55;;;;;;;14.50;4.23;;;;;;;9.76;90.12;101463.44;5048450;28;20466;-90
2022/05/12 03:46:06;;;;;;;12.40;4.72;;;;;;;9.73;90.14;101471.13;5029293;28;20037;-91
2022/05/12 03:48:35;;;;;;;17.43;4.90;;;;;;;9.68;90.73;101483.34;5030827;28;20025;-90
2022/05/12 03:51:00;;;;;;;16.67;5.57;;;;;;;9.68;91.60;101487.88;5030733;28;20281;-90
2022/05/12 03:53:26;;;;;;;20.60;5.85;;;;;;;9.66;91.81;101484.66;5031787;28;20392;-91
2022/05/12 03:55:52;;;;;;;19.15;6.05;;;;;;;9.66;93.52;101488.13;5034729;28;20038;-91
2022/05/12 03:58:17;;;;;;;15.50;5.43;;;;;;;9.66;92.43;101490.81;5033676;28;20036;-90
2022/05/12 04:00:43;;;;;;;18.93;5.47;;;;;;;9.66;92.59;101495.34;5021096;28;20407;-90
2022/05/12 04:03:08;;;;;;;19.33;6.53;;;;;;;9.66;93.95;101498.03;5017802;28;20112;-90
2022/05/12 04:05:34;;;;;;;18.10;6.72;;;;;;;9.67;94.07;101508.47;5014382;28;20374;-91
2022/05/12 04:07:59;;;;;;;28.07;6.83;;;;;;;9.67;94.12;101499.66;5045956;28;20030;-90
2022/05/12 04:10:26;;;;;;;21.70;7.50;;;;;;;9.70;93.85;101502.66;5014297;28;20018;-91
2022/05/12 04:12:52;;;;;;;20.08;7.28;;;;;;;9.73;94.12;101511.28;5014635;28;20037;-90
2022/05/12 04:15:19;;;;;;;21.52;7.80;;;;;;;9.69;94.23;101510.91;5016007;28;20073;-90
2022/05/12 04:17:50;;;;;;;23.80;7.80;;;;;;;9.77;94.60;101512.44;5050982;28;20073;-91
2022/05/12 04:20:15;;;;;;;20.63;8.20;;;;;;;9.82;94.81;101521.38;5053223;28;20021;-90
2022/05/12 04:22:43;;;;;;;24.83;8.70;;;;;;;9.81;95.02;101527.78;5052818;28;20036;-90
2022/05/12 04:25:09;;;;;;;26.50;8.65;;;;;;;9.83;95.10;101522.19;5043056;28;20465;-90
2022/05/12 04:27:35;;;;;;;22.95;8.55;;;;;;;9.88;95.28;101518.78;5038709;28;20503;-90
2022/05/12 04:30:02;;;;;;;24.60;9.18;;;;;;;9.94;94.28;101529.41;5032980;28;20430;-90
2022/05/12 04:32:27;;;;;;;23.97;9.07;;;;;;;10.00;94.51;101535.66;5031849;28;20032;-90
2022/05/12 04:37:51;;;;;;;26.33;9.83;;;;;;;10.08;95.21;101537.16;5033004;28;20147;-90
2022/05/12 04:40:22;;;;;;;31.60;10.47;;;;;;;10.15;95.51;101543.19;5031085;28;20319;-91
2022/05/12 04:42:49;;;;;;;26.25;10.48;;;;;;;10.17;95.32;101553.69;5033268;28;20723;-90
2022/05/12 04:45:16;;;;;;;28.55;10.32;;;;;;;10.24;95.48;101548.97;5032731;28;20064;-90
2022/05/12 04:47:43;;;;;;;30.63;10.88;;;;;;;10.30;95.78;101545.34;5031170;28;20037;-91
2022/05/12 04:50:11;;;;;;;32.47;10.57;;;;;;;10.41;95.37;101551.75;5031541;28;20036;-90
2022/05/12 04:52:37;;;;;;;30.88;10.70;;;;;;;10.60;95.33;101549.69;5035210;28;20025;-90
2022/05/12 04:55:02;;;;;;;32.30;12.00;;;;;;;11.12;94.42;101556.75;5042504;28;20095;-89
2022/05/12 04:57:35;;;;;;;32.95;12.25;;;;;;;11.72;90.83;101554.44;5050973;28;20071;-91
2022/05/12 05:00:00;;;;;;;29.57;10.93;;;;;;;12.27;88.30;101559.97;5050697;28;20025;-90
2022/05/12 05:02:25;;;;;;;33.25;12.05;;;;;;;12.80;85.94;101565.63;5052387;28;20032;-90
2022/05/12 05:04:51;;;;;;;28.73;11.77;;;;;;;13.31;84.08;101567.16;5049356;28;20477;-91
2022/05/12 05:07:17;;;;;;;31.23;10.93;;;;;;;13.72;81.73;101570.09;5052790;28;20017;-90
2022/05/12 05:09:43;;;;;;;22.98;10.63;;;;;;;13.98;80.81;101575.63;5052514;28;20032;-90
2022/05/12 05:12:09;;;;;;;24.50;11.20;;;;;;;14.44;78.85;101590.34;5052153;28;20500;-90
2022/05/12 05:14:34;;;;;;;28.02;11.10;;;;;;;14.92;76.30;101584.81;5058794;28;20025;-90
2022/05/12 05:16:59;;;;;;;28.07;11.30;;;;;;;15.33;74.86;101589.44;5056503;28;20027;-90
2022/05/12 05:19:25;;;;;;;26.17;10.57;;;;;;;15.74;73.14;101597.44;5039683;28;20455;-91
2022/05/12 05:21:51;;;;;;;27.92;10.52;;;;;;;16.09;71.21;101603.06;5034793;28;20031;-91
2022/05/12 05:24:16;;;;;;;28.40;11.47;;;;;;;16.14;70.24;101589.53;5036569;28;20025;-93
2022/05/12 05:26:41;;;;;;;26.80;11.60;;;;;;;16.09;71.17;101603.06;5048921;28;20053;-88
2022/05/12 05:29:07;;;;;;;23.67;10.13;;;;;;;16.16;70.76;101609.78;5045900;28;20036;-90
2022/05/12 05:31:36;;;;;;;28.40;12.43;;;;;;;16.08;71.13;101604.13;5020547;28;20041;-95
2022/05/12 05:34:01;;;;;;;24.15;11.88;;;;;;;16.03;71.21;101616.59;5047316;28;20029;-93
2022/05/12 05:36:27;;;;;;;31.57;12.10;;;;;;;15.79;73.00;101612.84;5066698;28;20019;-92
2022/05/12 05:38:52;;;;;;;27.40;11.83;;;;;;;15.59;73.05;101614.50;5070928;28;20029;-93
2022/05/12 05:41:17;;;;;;;28.55;12.43;;;;;;;15.46;73.17;101615.88;5054779;28;20057;-95
2022/05/12 05:43:44;;;;;;;27.80;12.80;;;;;;;15.35;73.34;101625.03;5054010;28;20083;-92
2022/05/12 05:46:16;;;;;;;25.43;11.73;;;;;;;15.15;74.87;101632.09;5056419;28;20060;-94
2022/05/12 05:48:43;;;;;;;23.70;10.97;;;;;;;15.00;74.16;101643.66;5050643;28;20287;-94
2022/05/12 05:53:54;;;;;;;27.95;12.18;;;;;;;14.60;77.40;101653.25;5038575;28;20092;-93
2022/05/12 05:56:20;;;;;;;29.77;12.90;;;;;;;14.45;78.20;101651.28;5042032;28;20026;-95
2022/05/12 05:58:45;;;;;;;23.88;11.93;;;;;;;14.38;79.52;101657.75;5041688;28;20017;-93
2022/05/12 06:01:12;;;;;;;32.38;12.25;;;;;;;14.38;78.42;101667.72;5040376;28;20032;-95
2022/05/12 06:03:38;;;;;;;22.30;11.00;;;;;;;14.33;79.27;101671.22;5027640;28;20026;-95
2022/05/12 06:06:04;;;;;;;27.60;12.33;;;;;;;14.28;79.53;101673.06;5033024;28;20353;-93
2022/05/12 06:08:29;;;;;;;26.75;12.18;;;;;;;14.24;80.56;101676.28;5047124;28;20103;-96
2022/05/12 06:11:14;;;;;;;25.00;12.55;;;;;;;14.20;79.87;101669.00;5050198;28;20030;-95
2022/05/12 06:14:00;;;;;;;28.15;12.88;;;;;;;14.21;81.09;101674.09;5587894;22;20049;-94
2022/05/12 06:21:50;;;;;;;33.65;13.85;;;;;;;14.23;80.65;101692.72;5044096;28;20488;-95
2022/05/12 06:24:16;;;;;;;31.55;12.93;;;;;;;14.32;80.95;101693.84;5036905;28;20593;-94
2022/05/12 06:26:41;;;;;;;32.95;12.80;;;;;;;14.48;80.73;101692.03;5027840;28;20068;-90
2022/05/12 06:29:07;;;;;;;34.80;14.30;;;;;;;14.64;80.77;101692.91;5032746;28;20111;-95
2022/05/12 06:31:33;;;;;;;32.33;13.03;;;;;;;14.80;79.34;101690.28;5033336;28;20033;-94
2022/05/12 06:33:59;;;;;;;27.67;12.30;;;;;;;14.82;78.75;101705.16;5031005;28;20033;-91
2022/05/12 06:36:25;;;;;;;28.77;12.88;;;;;;;14.90;78.22;101700.28;5037111;28;20028;-92
2022/05/12 06:38:54;;;;;;;22.20;11.17;;;;;;;15.01;76.96;101701.97;5030931;28;20108;-91
2022/05/12 06:41:20;;;;;;;24.42;11.65;;;;;;;15.26;76.82;101706.59;5022118;28;20029;-94
2022/05/12 06:43:46;;;;;;;24.00;12.27;;;;;;;15.54;76.00;101707.13;5027577;28;20036;-89
2022/05/12 06:46:16;;;;;;;25.90;12.88;;;;;;;15.76;75.12;101716.88;5030485;28;20033;-89
2022/05/12 06:48:47;;;;;;;24.02;11.27;;;;;;;15.86;73.15;101725.00;5027956;28;20037;-92
2022/05/12 06:51:13;;;;;;;29.40;11.33;;;;;;;15.78;73.35;101725.50;5029552;28;20060;-91
2022/05/12 06:53:41;;;;;;;22.90;10.90;;;;;;;15.84;72.67;101715.50;5019938;28;20355;-93
2022/05/12 06:56:07;;;;;;;21.35;10.00;;;;;;;15.99;71.75;101731.72;5030311;28;20044;-95
2022/05/12 06:58:33;;;;;;;23.75;11.35;;;;;;;16.03;71.48;101726.63;5022673;28;20084;-94
2022/05/12 07:01:00;;;;;;;21.42;11.23;;;;;;;16.36;70.26;101735.19;5033367;28;20136;-94
2022/05/12 07:03:25;;;;;;;22.25;10.35;;;;;;;16.69;69.25;101730.19;5030241;28;20049;-95
2022/05/12 07:05:51;;;;;;;22.08;9.93;;;;;;;16.65;67.33;101729.94;5040388;28;20155;-94
2022/05/12 07:08:17;;;;;;;19.00;9.90;;;;;;;16.55;68.14;101732.69;5038085;28;20036;-93
2022/05/12 07:10:42;;;;;;;21.70;10.52;;;;;;;16.51;69.23;101731.63;5041581;28;20068;-95
2022/05/12 07:13:08;;;;;;;24.77;10.00;;;;;;;16.60;67.75;101740.00;5035536;28;20036;-92
2022/05/12 07:15:33;;;;;;;21.03;10.10;;;;;;;16.61;66.10;101742.41;5030753;28;20492;-92
2022/05/12 07:17:59;;;;;;;20.48;10.75;;;;;;;16.87;66.24;101738.78;5026592;28;20113;-92
2022/05/12 07:28:41;;;;;;;24.45;11.95;;;;;;;17.86;61.72;101759.53;5034286;28;20037;-94
2022/05/12 07:31:09;;;;;;;20.55;11.05;;;;;;;17.57;62.69;101756.78;5028123;28;20060;-94
2022/05/12 07:33:43;;;;;;;21.33;10.60;;;;;;;17.26;63.53;101746.97;5039338;28;20041;-95
2022/05/12 07:36:15;;;;;;;18.15;11.10;;;;;;;16.95;64.24;101757.97;5048887;28;20489;-95
2022/05/12 07:38:42;;;;;;;19.08;10.68;;;;;;;16.63;64.15;101761.06;5048397;28;20041;-94
2022/05/12 07:41:10;;;;;;;22.23;10.75;;;;;;;16.39;65.32;101758.16;5052927;28;20010;-94
2022/05/12 07:43:36;;;;;;;15.23;9.30;;;;;;;16.47;64.04;101760.31;5047270;28;20036;-93
2022/05/12 07:46:02;;;;;;;17.60;8.63;;;;;;;16.50;63.74;101767.88;5047719;28;20108;-95
2022/05/12 07:48:27;;;;;;;17.75;9.95;;;;;;;16.63;63.58;101761.88;5050176;28;20033;-92
2022/05/12 07:50:52;;;;;;;19.77;9.37;;;;;;;17.01;61.80;101764.19;5052723;28;20026;-94
2022/05/12 07:53:18;;;;;;;16.57;7.83;;;;;;;17.35;59.27;101766.16;5053417;28;20053;-93
2022/05/12 07:55:44;;;;;;;14.93;7.80;;;;;;;17.64;59.08;101778.97;5050888;28;20032;-93
2022/05/12 07:58:10;;;;;;;15.10;8.77;;;;;;;17.98;58.30;101775.47;5049954;28;20326;-93
2022/05/12 08:00:35;;;;;;;17.65;8.23;;;;;;;18.13;57.22;101768.28;5050098;28;20029;-94
2022/05/12 08:03:01;;;;;;;12.03;7.80;;;;;;;18.11;57.72;101774.00;5043603;28;20075;-95
2022/05/12 08:05:26;;;;;;;16.97;7.53;;;;;;;18.05;56.10;101783.25;5043123;28;20563;-94
2022/05/12 08:08:10;;;;;;;12.90;7.20;;;;;;;17.66;55.48;101784.91;5044597;28;20159;-96
2022/05/12 08:10:36;;;;;;;15.13;7.55;;;;;;;17.61;57.32;101795.00;5044242;28;20030;-96
2022/05/12 08:13:02;;;;;;;14.75;7.60;;;;;;;17.97;57.90;101781.94;5042843;28;20021;-94
2022/05/12 08:15:28;;;;;;;18.25;8.02;;;;;;;18.24;57.05;101787.97;5024549;28;20065;-95
2022/05/12 08:17:54;;;;;;;15.53;8.47;;;;;;;18.53;55.17;101787.16;5021942;28;20026;-95
2022/05/12 08:20:20;;;;;;;12.88;7.78;;;;;;;18.83;54.78;101777.00;5026363;28;20029;-96
2022/05/12 08:22:47;;;;;;;10.33;6.30;;;;;;;19.14;50.85;101791.03;5018778;28;20061;-96
2022/05/12 08:25:13;;;;;;;12.68;5.95;;;;;;;19.00;49.26;101790.94;5017832;28;20084;-95
2022/05/12 08:27:39;;;;;;;9.88;5.50;;;;;;;19.26;49.83;101789.78;5016624;28;20060;-95
2022/05/12 08:30:07;;;;;;;9.32;5.45;;;;;;;19.24;48.66;101789.25;5021541;28;20033;-96
2022/05/12 08:32:33;;;;;;;13.18;6.47;;;;;;;19.58;49.86;101793.66;5026988;28;20101;-96
2022/05/12 08:34:58;;;;;;;13.17;6.40;;;;;;;19.56;48.79;101785.81;5032040;28;20449;-95
2022/05/12 08:37:23;;;;;;;8.67;5.80;;;;;;;19.63;49.75;101786.22;5034608;28;20280;-96
2022/05/12 08:39:49;;;;;;;11.13;5.53;;;;;;;19.51;46.28;101788.59;5032245;28;20029;-95
2022/05/12 08:42:28;;;;;;;10.37;5.93;;;;;;;19.41;48.53;101783.31;5029086;28;20033;-95
2022/05/12 08:44:56;;;;;;;25.42;6.55;;;;;;;19.14;47.47;101782.88;5034136;28;20098;-95
2022/05/12 08:47:34;;;;;;;14.00;6.03;;;;;;;19.20;47.51;101792.56;5039402;28;20026;-95
2022/05/12 08:50:00;;;;;;;12.23;5.53;;;;;;;19.48;47.64;101784.56;5039285;28;20033;-96
2022/05/12 08:52:31;;;;;;;11.73;5.93;;;;;;;20.02;46.26;101783.44;5049376;28;20029;-94
2022/05/12 08:55:15;;;;;;;10.27;4.93;;;;;;;20.29;45.58;101793.56;5043043;28;20021;-93
2022/05/12 08:57:58;;;;;;;12.90;4.50;;;;;;;20.34;43.57;101789.97;5035742;28;20033;-95
2022/05/12 09:00:26;;;;;;;8.00;4.38;;;;;;;20.47;42.97;101796.50;5037217;28;20081;-94
2022/05/12 09:02:57;;;;;;;12.60;5.40;;;;;;;20.46;43.95;101803.06;5028595;28;20030;-95
2022/05/12 09:05:30;;;;;;;8.07;4.25;;;;;;;20.58;43.67;101793.28;5024332;28;20077;-96
2022/05/12 09:08:10;;;;;;;14.18;5.90;;;;;;;20.54;44.73;101796.94;5026009;28;20073;-95
2022/05/12 09:10:50;;;;;;;8.20;4.55;;;;;;;20.35;44.79;101816.88;5014839;28;20030;-95
2022/05/12 09:13:26;;;;;;;11.02;4.40;;;;;;;19.93;44.21;101814.06;5017590;28;20034;-96
2022/05/12 09:16:05;;;;;;;8.57;3.73;;;;;;;19.49;43.42;101798.94;5012704;28;20025;-95
2022/05/12 09:18:33;;;;;;;6.73;3.50;;;;;;;19.38;44.43;101792.84;5024055;28;20346;-96
2022/05/12 09:21:26;;;;;;;13.10;4.18;;;;;;;19.33;45.30;101804.63;5034722;28;20037;-95
2022/05/12 09:23:57;;;;;;;9.43;4.05;;;;;;;19.05;44.69;101803.63;5034188;28;20033;-93
2022/05/12 09:26:41;;;;;;;12.63;5.30;;;;;;;18.81;46.14;101809.06;5041882;28;20014;-96
2022/05/12 09:29:08;;;;;;;9.98;4.97;;;;;;;18.48;46.01;101798.84;5049142;28;20037;-95
2022/05/12 09:31:37;;;;;;;11.57;4.93;;;;;;;18.55;45.49;101796.59;5034467;28;20449;-95
2022/05/12 09:40:39;;;;;;;9.32;4.95;;;;;;;20.73;41.26;101796.81;6154244;22;20381;-93
2022/05/12 09:43:18;;;;;;;15.27;4.80;;;;;;;21.28;41.60;101795.13;5053558;28;20063;-96
2022/05/12 09:50:46;;;;;;;3.78;2.45;;;;;;;21.12;37.49;101795.47;5188057;22;20111;-94
2022/05/12 09:56:24;;;;;;;7.63;3.58;;;;;;;20.32;40.19;101800.34;5430968;22;20057;-95
2022/05/12 09:59:01;;;;;;;6.28;3.38;;;;;;;19.98;40.41;101791.41;5030013;28;20481;-94
2022/05/12 10:01:30;;;;;;;5.10;3.45;;;;;;;19.96;40.72;101793.63;5032690;28;20084;-93
2022/05/12 10:07:53;;;;;;;6.75;3.47;;;;;;;20.54;40.04;101781.38;5033436;28;20039;-94
2022/05/12 10:12:41;;;;;;;5.40;3.20;;;;;;;20.72;39.24;101787.84;5014946;28;20496;-94
2022/05/12 10:15:20;;;;;;;5.83;3.30;;;;;;;21.23;39.24;101785.16;5015362;28;20315;-93
2022/05/12 10:20:25;;;;;;;8.05;3.08;;;;;;;22.15;35.84;101789.50;5095836;22;20044;-94
2022/05/12 10:22:56;;;;;;;6.32;2.50;;;;;;;22.02;35.75;101785.72;5072784;28;20029;-94
2022/05/12 10:25:24;;;;;;;6.55;2.70;;;;;;;21.98;35.96;101792.13;5072718;28;20084;-95
2022/05/12 10:28:12;;;;;;;7.95;2.97;;;;;;;22.19;36.81;101786.94;5071612;28;20037;-93
2022/05/12 10:31:07;;;;;;;5.60;2.33;;;;;;;22.70;36.41;101782.00;5068237;28;20032;-94
2022/05/12 10:33:42;;;;;;;6.40;2.13;;;;;;;22.67;34.99;101780.72;5051677;28;20098;-95
2022/05/12 10:36:38;;;;;;;3.58;1.80;;;;;;;22.59;34.22;101794.38;5037341;28;20060;-94
2022/05/12 10:39:29;;;;;;;6.60;2.80;;;;;;;22.45;34.86;101795.28;5109880;22;20049;-95
2022/05/12 10:42:12;;;;;;;6.13;3.20;;;;;;;22.43;35.47;101796.72;5071074;28;20306;-95
2022/05/12 10:44:56;;;;;;;6.03;2.65;;;;;;;22.23;33.58;101794.19;5057706;28;20029;-95
2022/05/12 10:47:56;;;;;;;8.40;2.90;;;;;;;22.34;35.42;101794.72;5031702;28;20496;-95
2022/05/12 10:50:48;;;;;;;8.73;3.15;;;;;;;23.00;35.57;101793.19;5006764;28;20505;-95
2022/05/12 10:53:27;;;;;;;6.32;3.40;;;;;;;22.94;34.38;101787.03;5011694;28;20136;-96
2022/05/12 10:56:24;;;;;;;6.93;2.88;;;;;;;22.94;34.04;101784.31;5011174;28;20460;-95
2022/05/12 10:59:07;;;;;;;8.45;2.60;;;;;;;22.73;33.45;101777.88;5011641;28;20478;-96
2022/05/12 11:01:37;;;;;;;8.13;2.70;;;;;;;22.58;33.51;101790.81;5009818;28;20446;-95
2022/05/12 11:04:09;;;;;;;6.43;3.05;;;;;;;22.16;33.75;101788.38;5016211;28;20025;-95
2022/05/12 11:06:49;;;;;;;5.60;2.87;;;;;;;22.05;34.98;101787.84;5015307;28;20030;-95
2022/05/12 11:09:32;;;;;;;4.83;2.70;;;;;;;22.27;35.54;101785.38;5016651;28;20308;-94
2022/05/12 11:12:04;;;;;;;5.75;2.65;;;;;;;22.66;34.09;101778.31;5017103;28;20110;-95
2022/05/12 11:14:37;;;;;;;7.15;2.30;;;;;;;22.62;32.57;101774.63;5021163;28;20101;-95
2022/05/12 11:17:17;;;;;;;5.03;2.50;;;;;;;22.69;33.53;101775.75;5014929;28;20119;-94
2022/05/12 11:19:48;;;;;;;7.05;3.30;;;;;;;22.91;32.92;101773.22;5015011;28;20413;-95
2022/05/12 11:22:38;;;;;;;9.63;3.60;;;;;;;23.03;33.51;101776.13;5014629;28;20022;-95
2022/05/12 11:25:18;;;;;;;7.13;3.90;;;;;;;23.11;34.24;101772.59;5021842;28;20029;-94
2022/05/12 11:29:41;;;;;;;8.02;3.60;;;;;;;22.97;33.22;101755.56;5034372;28;20041;-95
2022/05/12 11:30:57;;;;;;;8.18;3.47;;;;;;;23.05;32.32;101762.94;5033779;28;20033;-94
2022/05/12 11:33:29;;;;;;;8.50;2.90;;;;;;;23.03;31.69;101765.19;5034738;28;20048;-94
2022/05/12 11:35:54;;;;;;;4.70;3.20;;;;;;;23.25;31.24;101767.00;5035038;28;20272;-94
2022/05/12 11:38:35;;;;;;;7.95;2.85;;;;;;;23.35;32.31;101771.34;5035185;28;20037;-95
2022/05/12 11:41:00;;;;;;;8.50;2.97;;;;;;;23.35;31.22;101756.88;5033250;28;21524;-95
2022/05/12 11:46:41;;;;;;;7.43;3.88;;;;;;;23.60;32.14;101763.44;5029627;28;20079;-95
2022/05/12 11:49:34;;;;;;;7.63;3.10;;;;;;;23.75;32.66;101760.16;5044605;28;20036;-94
2022/05/12 11:52:21;;;;;;;5.63;3.40;;;;;;;23.56;30.67;101763.28;5044677;28;20060;-95
2022/05/12 11:54:57;;;;;;;10.85;2.92;;;;;;;23.76;30.21;101761.00;5045036;28;20083;-94
2022/05/12 11:57:24;;;;;;;3.67;2.80;;;;;;;23.80;30.04;101758.41;5022936;28;20041;-94
2022/05/12 12:00:00;;;;;;;6.90;2.90;;;;;;;23.85;30.41;101767.22;5023503;28;20022;-94
2022/05/12 12:02:29;;;;;;;8.67;2.97;;;;;;;23.65;30.91;101752.31;5021984;28;20261;-93
2022/05/12 12:05:13;;;;;;;4.60;2.85;;;;;;;23.50;30.56;101761.03;5016334;28;20049;-94
2022/05/12 12:07:38;;;;;;;6.13;2.80;;;;;;;23.34;29.63;101760.72;5013724;28;20075;-94
2022/05/12 12:10:22;;;;;;;10.53;3.30;;;;;;;23.36;30.21;101762.03;5014067;28;20033;-95
2022/05/12 12:12:49;;;;;;;7.32;2.88;;;;;;;23.42;31.02;101754.44;5016216;28;20044;-95
2022/05/12 12:15:23;;;;;;;6.28;2.70;;;;;;;23.77;30.60;101761.78;5023326;28;20034;-94
2022/05/12 12:17:50;;;;;;;7.65;2.50;;;;;;;24.21;29.80;101767.94;5034325;28;20025;-96